sensor_id;sensor_type;location;lat;lon;timestamp;pressure;altitude;pressure_sealevel;temperature;humidity
26043;BME280;13818;52.156;5.382;2023-02-28T00:00:48;102882.44;;;3.42;100.00
26043;BME280;13818;52.156;5.382;2023-02-28T00:03:16;102888.63;;;3.45;100.00
26043;BME280;13818;52.156;5.382;2023-02-28T00:05:42;102891.38;;;3.52;100.00
26043;BME280;13818;52.156;5.382;2023-02-28T00:08:09;102888.78;;;3.55;100.00
26043;BME280;13818;52.156;5.382;2023-02-28T00:10:35;102889.78;;;3.61;100.00
26043;BME280;13818;52.156;5.382;2023-02-28T00:13:04;102893.19;;;3.55;100.00
26043;BME280;13818;52.156;5.382;2023-02-28T00:15:31;102891.50;;;3.60;100.00
26043;BME280;13818;52.156;5.382;2023-02-28T00:17:58;102889.72;;;3.59;100.00
26043;BME280;13818;52.156;5.382;2023-02-28T00:20:26;102900.34;;;3.64;100.00
26043;BME280;13818;52.156;5.382;2023-02-28T00:22:53;102904.59;;;3.54;100.00
26043;BME280;13818;52.156;5.382;2023-02-28T00:25:21;102901.09;;;3.55;100.00
26043;BME280;13818;52.156;5.382;2023-02-28T00:27:48;102898.31;;;3.46;100.00
26043;BME280;13818;52.156;5.382;2023-02-28T00:30:18;102902.84;;;3.54;100.00
26043;BME280;13818;52.156;5.382;2023-02-28T00:32:45;102896.75;;;3.57;100.00
26043;BME280;13818;52.156;5.382;2023-02-28T00:35:12;102895.72;;;3.50;100.00
26043;BME280;13818;52.156;5.382;2023-02-28T00:37:41;102897.50;;;3.51;100.00
26043;BME280;13818;52.156;5.382;2023-02-28T00:40:09;102892.34;;;3.59;100.00
26043;BME280;13818;52.156;5.382;2023-02-28T00:42:37;102893.19;;;3.56;100.00
26043;BME280;13818;52.156;5.382;2023-02-28T00:45:04;102899.50;;;3.65;100.00
26043;BME280;13818;52.156;5.382;2023-02-28T00:47:31;102901.28;;;3.66;100.00
26043;BME280;13818;52.156;5.382;2023-02-28T00:49:58;102890.69;;;3.64;100.00
26043;BME280;13818;52.156;5.382;2023-02-28T00:52:24;102896.88;;;3.66;100.00
26043;BME280;13818;52.156;5.382;2023-02-28T00:54:53;102883.78;;;3.71;100.00
26043;BME280;13818;52.156;5.382;2023-02-28T00:57:19;102891.69;;;3.72;100.00
26043;BME280;13818;52.156;5.382;2023-02-28T00:59:46;102890.00;;;3.74;100.00
26043;BME280;13818;52.156;5.382;2023-02-28T01:02:12;102904.88;;;3.71;100.00
26043;BME280;13818;52.156;5.382;2023-02-28T01:04:39;102903.16;;;3.74;100.00
26043;BME280;13818;52.156;5.382;2023-02-28T01:07:05;102887.03;;;3.54;100.00
26043;BME280;13818;52.156;5.382;2023-02-28T01:09:32;102895.69;;;3.47;100.00
26043;BME280;13818;52.156;5.382;2023-02-28T01:12:00;102897.59;;;3.56;100.00
26043;BME280;13818;52.156;5.382;2023-02-28T01:14:27;102901.13;;;3.56;100.00
26043;BME280;13818;52.156;5.382;2023-02-28T01:16:54;102888.72;;;3.49;100.00
26043;BME280;13818;52.156;5.382;2023-02-28T01:19:20;102896.53;;;3.45;100.00
26043;BME280;13818;52.156;5.382;2023-02-28T01:21:47;102894.13;;;3.58;100.00
26043;BME280;13818;52.156;5.382;2023-02-28T01:24:13;102901.22;;;3.64;100.00
26043;BME280;13818;52.156;5.382;2023-02-28T01:26:39;102885.47;;;3.66;100.00
26043;BME280;13818;52.156;5.382;2023-02-28T01:29:07;102884.44;;;3.57;100.00
26043;BME280;13818;52.156;5.382;2023-02-28T01:31:34;102888.88;;;3.62;100.00
26043;BME280;13818;52.156;5.382;2023-02-28T01:34:00;102877.59;;;3.70;100.00
26043;BME280;13818;52.156;5.382;2023-02-28T01:36:27;102877.66;;;3.73;100.00
26043;BME280;13818;52.156;5.382;2023-02-28T01:38:53;102875.78;;;3.68;100.00
26043;BME280;13818;52.156;5.382;2023-02-28T01:41:22;102880.22;;;3.69;100.00
26043;BME280;13818;52.156;5.382;2023-02-28T01:43:58;102875.91;;;3.75;100.00
26043;BME280;13818;52.156;5.382;2023-02-28T01:46:30;102878.53;;;3.74;100.00
26043;BME280;13818;52.156;5.382;2023-02-28T01:49:01;102878.59;;;3.79;100.00
26043;BME280;13818;52.156;5.382;2023-02-28T01:51:35;102876.84;;;3.81;100.00
26043;BME280;13818;52.156;5.382;2023-02-28T01:54:06;102881.31;;;3.83;100.00
26043;BME280;13818;52.156;5.382;2023-02-28T01:56:41;102877.84;;;3.87;100.00
26043;BME280;13818;52.156;5.382;2023-02-28T01:59:12;102868.09;;;3.82;100.00
26043;BME280;13818;52.156;5.382;2023-02-28T02:01:40;102881.44;;;3.91;100.00
26043;BME280;13818;52.156;5.382;2023-02-28T02:04:07;102861.09;;;3.84;100.00
26043;BME280;13818;52.156;5.382;2023-02-28T02:06:38;102854.88;;;3.79;100.00
26043;BME280;13818;52.156;5.382;2023-02-28T02:09:05;102858.25;;;3.70;100.00
26043;BME280;13818;52.156;5.382;2023-02-28T02:11:33;102857.47;;;3.77;100.00
26043;BME280;13818;52.156;5.382;2023-02-28T02:14:28;102851.28;;;3.75;100.00
26043;BME280;13818;52.156;5.382;2023-02-28T02:17:08;102852.16;;;3.75;100.00
26043;BME280;13818;52.156;5.382;2023-02-28T02:20:06;102853.94;;;3.77;100.00
26043;BME280;13818;52.156;5.382;2023-02-28T02:23:03;102855.72;;;3.78;100.00
26043;BME280;13818;52.156;5.382;2023-02-28T02:25:38;102861.06;;;3.82;100.00
26043;BME280;13818;52.156;5.382;2023-02-28T02:28:37;102862.06;;;3.90;100.00
26043;BME280;13818;52.156;5.382;2023-02-28T02:34:22;102863.81;;;3.88;100.00
26043;BME280;13818;52.156;5.382;2023-02-28T02:36:53;102862.19;;;4.00;100.00
26043;BME280;13818;52.156;5.382;2023-02-28T02:39:31;102861.38;;;4.04;100.00
26043;BME280;13818;52.156;5.382;2023-02-28T02:42:01;102852.63;;;4.08;100.00
26043;BME280;13818;52.156;5.382;2023-02-28T02:44:31;102862.25;;;4.04;100.00
26043;BME280;13818;52.156;5.382;2023-02-28T02:47:03;102863.06;;;4.00;100.00
26043;BME280;13818;52.156;5.382;2023-02-28T02:49:36;102863.09;;;4.03;100.00
26043;BME280;13818;52.156;5.382;2023-02-28T02:52:07;102863.16;;;4.08;100.00
26043;BME280;13818;52.156;5.382;2023-02-28T02:54:37;102861.28;;;3.98;100.00
26043;BME280;13818;52.156;5.382;2023-02-28T02:57:07;102861.28;;;3.99;100.00
26043;BME280;13818;52.156;5.382;2023-02-28T02:59:35;102859.78;;;4.18;100.00
26043;BME280;13818;52.156;5.382;2023-02-28T03:02:05;102853.63;;;4.18;100.00
26043;BME280;13818;52.156;5.382;2023-02-28T03:04:38;102856.16;;;4.10;100.00
26043;BME280;13818;52.156;5.382;2023-02-28T03:07:07;102850.06;;;4.16;100.00
26043;BME280;13818;52.156;5.382;2023-02-28T03:09:34;102859.75;;;4.17;100.00
26043;BME280;13818;52.156;5.382;2023-02-28T03:12:03;102867.59;;;4.09;100.00
26043;BME280;13818;52.156;5.382;2023-02-28T03:14:45;102863.16;;;4.08;100.00
26043;BME280;13818;52.156;5.382;2023-02-28T03:17:26;102864.03;;;4.05;100.00
26043;BME280;13818;52.156;5.382;2023-02-28T03:20:07;102865.75;;;4.03;100.00
26043;BME280;13818;52.156;5.382;2023-02-28T03:22:52;102868.25;;;3.94;100.00
26043;BME280;13818;52.156;5.382;2023-02-28T03:25:30;102861.25;;;3.95;100.00
26043;BME280;13818;52.156;5.382;2023-02-28T03:28:05;102860.44;;;4.00;100.00
26043;BME280;13818;52.156;5.382;2023-02-28T03:30:46;102866.56;;;3.98;100.00
26043;BME280;13818;52.156;5.382;2023-02-28T03:33:21;102864.03;;;4.05;100.00
26043;BME280;13818;52.156;5.382;2023-02-28T03:35:53;102856.75;;;3.89;100.00
26043;BME280;13818;52.156;5.382;2023-02-28T03:38:25;102863.81;;;3.90;100.00
26043;BME280;13818;52.156;5.382;2023-02-28T03:41:00;102862.97;;;3.93;100.00
26043;BME280;13818;52.156;5.382;2023-02-28T03:43:33;102860.03;;;3.71;100.00
26043;BME280;13818;52.156;5.382;2023-02-28T03:46:07;102863.44;;;3.65;100.00
26043;BME280;13818;52.156;5.382;2023-02-28T03:48:40;102877.59;;;3.70;100.00
26043;BME280;13818;52.156;5.382;2023-02-28T03:51:11;102872.94;;;3.52;100.00
26043;BME280;13818;52.156;5.382;2023-02-28T03:53:42;102882.63;;;3.55;100.00
26043;BME280;13818;52.156;5.382;2023-02-28T03:56:15;102888.66;;;3.48;100.00
26043;BME280;13818;52.156;5.382;2023-02-28T03:58:47;102886.81;;;3.40;100.00
26043;BME280;13818;52.156;5.382;2023-02-28T04:01:20;102884.94;;;3.35;100.00
26043;BME280;13818;52.156;5.382;2023-02-28T04:03:49;102871.72;;;3.32;100.00
26043;BME280;13818;52.156;5.382;2023-02-28T04:06:19;102881.34;;;3.30;100.00
26043;BME280;13818;52.156;5.382;2023-02-28T04:08:47;102880.59;;;3.37;100.00
26043;BME280;13818;52.156;5.382;2023-02-28T04:11:21;102880.28;;;3.18;100.00
26043;BME280;13818;52.156;5.382;2023-02-28T04:13:48;102884.75;;;3.24;100.00
26043;BME280;13818;52.156;5.382;2023-02-28T04:16:15;102875.03;;;3.21;100.00
26043;BME280;13818;52.156;5.382;2023-02-28T04:18:42;102877.84;;;3.31;100.00
26043;BME280;13818;52.156;5.382;2023-02-28T04:21:09;102879.56;;;3.29;100.00
26043;BME280;13818;52.156;5.382;2023-02-28T04:23:38;102884.81;;;3.25;100.00
26043;BME280;13818;52.156;5.382;2023-02-28T04:26:05;102876.06;;;3.28;100.00
26043;BME280;13818;52.156;5.382;2023-02-28T04:28:32;102872.34;;;3.15;100.00
26043;BME280;13818;52.156;5.382;2023-02-28T04:31:01;102877.41;;;3.06;100.00
26043;BME280;13818;52.156;5.382;2023-02-28T04:33:28;102887.19;;;3.12;100.00
26043;BME280;13818;52.156;5.382;2023-02-28T04:35:59;102884.44;;;3.05;100.00
26043;BME280;13818;52.156;5.382;2023-02-28T04:38:25;102888.78;;;3.03;100.00
26043;BME280;13818;52.156;5.382;2023-02-28T04:40:53;102880.03;;;3.04;100.00
26043;BME280;13818;52.156;5.382;2023-02-28T04:43:22;102886.75;;;2.88;100.00
26043;BME280;13818;52.156;5.382;2023-02-28T04:45:49;102898.84;;;2.79;100.00
26043;BME280;13818;52.156;5.382;2023-02-28T04:48:15;102884.84;;;2.80;100.00
26043;BME280;13818;52.156;5.382;2023-02-28T04:50:42;102897.16;;;2.81;100.00
26043;BME280;13818;52.156;5.382;2023-02-28T04:53:08;102883.13;;;2.82;100.00
26043;BME280;13818;52.156;5.382;2023-02-28T04:55:35;102877.03;;;2.84;100.00
26043;BME280;13818;52.156;5.382;2023-02-28T04:58:02;102886.56;;;2.78;100.00
26043;BME280;13818;52.156;5.382;2023-02-28T05:00:29;102889.22;;;2.78;100.00
26043;BME280;13818;52.156;5.382;2023-02-28T05:02:57;102899.66;;;2.73;100.00
26043;BME280;13818;52.156;5.382;2023-02-28T05:05:23;102888.31;;;2.77;100.00
26043;BME280;13818;52.156;5.382;2023-02-28T05:07:50;102888.00;;;2.60;100.00
26043;BME280;13818;52.156;5.382;2023-02-28T05:10:16;102873.19;;;2.67;100.00
26043;BME280;13818;52.156;5.382;2023-02-28T05:12:43;102869.69;;;2.66;100.00
26043;BME280;13818;52.156;5.382;2023-02-28T05:15:13;102874.78;;;2.58;100.00
26043;BME280;13818;52.156;5.382;2023-02-28T05:17:39;102879.00;;;2.49;100.00
26043;BME280;13818;52.156;5.382;2023-02-28T05:20:07;102884.00;;;2.36;100.00
26043;BME280;13818;52.156;5.382;2023-02-28T05:22:35;102895.25;;;2.31;100.00
26043;BME280;13818;52.156;5.382;2023-02-28T05:25:02;102900.50;;;2.29;100.00
26043;BME280;13818;52.156;5.382;2023-02-28T05:27:29;102895.97;;;2.22;100.00
26043;BME280;13818;52.156;5.382;2023-02-28T05:29:56;102901.13;;;2.16;100.00
26043;BME280;13818;52.156;5.382;2023-02-28T05:32:24;102902.69;;;2.07;100.00
26043;BME280;13818;52.156;5.382;2023-02-28T05:34:50;102899.88;;;2.00;100.00
26043;BME280;13818;52.156;5.382;2023-02-28T05:37:17;102893.59;;;1.93;100.00
26043;BME280;13818;52.156;5.382;2023-02-28T05:39:44;102897.91;;;1.89;100.00
26043;BME280;13818;52.156;5.382;2023-02-28T05:42:10;102892.63;;;1.89;100.00
26043;BME280;13818;52.156;5.382;2023-02-28T05:44:37;102899.41;;;1.79;100.00
26043;BME280;13818;52.156;5.382;2023-02-28T05:47:03;102898.56;;;1.81;100.00
26043;BME280;13818;52.156;5.382;2023-02-28T05:49:31;102897.72;;;1.82;100.00
26043;BME280;13818;52.156;5.382;2023-02-28T05:51:58;102902.34;;;1.92;100.00
26043;BME280;13818;52.156;5.382;2023-02-28T05:54:24;102914.50;;;1.87;100.00
26043;BME280;13818;52.156;5.382;2023-02-28T05:56:50;102910.06;;;1.84;100.00
26043;BME280;13818;52.156;5.382;2023-02-28T05:59:17;102912.41;;;1.73;100.00
26043;BME280;13818;52.156;5.382;2023-02-28T06:01:45;102910.47;;;1.66;100.00
26043;BME280;13818;52.156;5.382;2023-02-28T06:04:14;102913.03;;;1.61;100.00
26043;BME280;13818;52.156;5.382;2023-02-28T06:06:44;102904.38;;;1.67;100.00
26043;BME280;13818;52.156;5.382;2023-02-28T06:09:11;102903.31;;;1.59;100.00
26043;BME280;13818;52.156;5.382;2023-02-28T06:11:38;102906.81;;;1.59;100.00
26043;BME280;13818;52.156;5.382;2023-02-28T06:14:05;102900.88;;;1.67;100.00
26043;BME280;13818;52.156;5.382;2023-02-28T06:16:34;102909.66;;;1.69;100.00
26043;BME280;13818;52.156;5.382;2023-02-28T06:19:01;102910.47;;;1.65;100.00
26043;BME280;13818;52.156;5.382;2023-02-28T06:21:28;102908.19;;;1.80;100.00
26043;BME280;13818;52.156;5.382;2023-02-28T06:23:57;102899.78;;;1.97;100.00
26043;BME280;13818;52.156;5.382;2023-02-28T06:26:24;102885.91;;;2.02;100.00
26043;BME280;13818;52.156;5.382;2023-02-28T06:28:51;102897.47;;;2.10;100.00
26043;BME280;13818;52.156;5.382;2023-02-28T06:31:18;102903.78;;;2.17;100.00
26043;BME280;13818;52.156;5.382;2023-02-28T06:33:45;102899.34;;;2.15;100.00
26043;BME280;13818;52.156;5.382;2023-02-28T06:36:14;102900.06;;;2.09;100.00
26043;BME280;13818;52.156;5.382;2023-02-28T06:38:42;102902.88;;;2.17;100.00
26043;BME280;13818;52.156;5.382;2023-02-28T06:41:11;102913.56;;;2.24;100.00
26043;BME280;13818;52.156;5.382;2023-02-28T06:43:39;102909.25;;;2.28;100.00
26043;BME280;13818;52.156;5.382;2023-02-28T06:46:08;102911.72;;;2.20;100.00
26043;BME280;13818;52.156;5.382;2023-02-28T06:48:35;102908.88;;;2.09;100.00
26043;BME280;13818;52.156;5.382;2023-02-28T06:51:03;102901.81;;;2.08;100.00
26043;BME280;13818;52.156;5.382;2023-02-28T06:53:30;102905.63;;;2.23;100.00
26043;BME280;13818;52.156;5.382;2023-02-28T06:55:57;102906.41;;;2.17;100.00
26043;BME280;13818;52.156;5.382;2023-02-28T06:58:24;102915.69;;;2.01;100.00
26043;BME280;13818;52.156;5.382;2023-02-28T07:00:52;102911.56;;;2.13;100.00
26043;BME280;13818;52.156;5.382;2023-02-28T07:03:20;102899.34;;;2.16;100.00
26043;BME280;13818;52.156;5.382;2023-02-28T07:05:47;102910.06;;;2.24;100.00
26043;BME280;13818;52.156;5.382;2023-02-28T07:08:13;102919.75;;;2.26;100.00
26043;BME280;13818;52.156;5.382;2023-02-28T07:10:40;102924.44;;;2.40;100.00
26043;BME280;13818;52.156;5.382;2023-02-28T07:13:08;102925.25;;;2.37;100.00
26043;BME280;13818;52.156;5.382;2023-02-28T07:15:36;102929.34;;;2.24;100.00
26043;BME280;13818;52.156;5.382;2023-02-28T07:18:03;102915.47;;;2.32;100.00
26043;BME280;13818;52.156;5.382;2023-02-28T07:20:30;102915.72;;;2.42;100.00
26043;BME280;13818;52.156;5.382;2023-02-28T07:22:56;102921.03;;;2.46;100.00
26043;BME280;13818;52.156;5.382;2023-02-28T07:25:24;102927.50;;;2.60;100.00
26043;BME280;13818;52.156;5.382;2023-02-28T07:27:53;102927.56;;;2.65;100.00
26043;BME280;13818;52.156;5.382;2023-02-28T07:30:19;102919.63;;;2.62;100.00
26043;BME280;13818;52.156;5.382;2023-02-28T07:32:47;102926.16;;;2.39;100.00
26043;BME280;13818;52.156;5.382;2023-02-28T07:35:14;102921.13;;;2.49;100.00
26043;BME280;13818;52.156;5.382;2023-02-28T07:37:41;102917.97;;;2.68;100.00
26043;BME280;13818;52.156;5.382;2023-02-28T07:40:10;102925.75;;;2.62;100.00
26043;BME280;13818;52.156;5.382;2023-02-28T07:42:38;102930.72;;;2.47;100.00
26043;BME280;13818;52.156;5.382;2023-02-28T07:45:05;102940.78;;;2.66;100.00
26043;BME280;13818;52.156;5.382;2023-02-28T07:47:32;102943.44;;;2.68;100.00
26043;BME280;13818;52.156;5.382;2023-02-28T07:50:00;102943.59;;;2.75;100.00
26043;BME280;13818;52.156;5.382;2023-02-28T07:52:27;102934.13;;;2.84;100.00
26043;BME280;13818;52.156;5.382;2023-02-28T07:54:53;102941.91;;;2.79;100.00
26043;BME280;13818;52.156;5.382;2023-02-28T07:57:20;102938.59;;;2.89;100.00
26043;BME280;13818;52.156;5.382;2023-02-28T07:59:46;102924.72;;;2.98;100.00
26043;BME280;13818;52.156;5.382;2023-02-28T08:02:14;102925.81;;;3.09;100.00
26043;BME280;13818;52.156;5.382;2023-02-28T08:04:41;102939.97;;;3.16;100.00
26043;BME280;13818;52.156;5.382;2023-02-28T08:07:08;102933.00;;;3.20;100.00
26043;BME280;13818;52.156;5.382;2023-02-28T08:09:38;102943.78;;;3.32;100.00
26043;BME280;13818;52.156;5.382;2023-02-28T08:12:05;102942.97;;;3.36;100.00
26043;BME280;13818;52.156;5.382;2023-02-28T08:14:32;102934.41;;;3.48;100.00
26043;BME280;13818;52.156;5.382;2023-02-28T08:16:59;102945.72;;;3.42;100.00
26043;BME280;13818;52.156;5.382;2023-02-28T08:19:25;102960.66;;;2.96;100.00
26043;BME280;13818;52.156;5.382;2023-02-28T08:21:52;102964.94;;;2.89;100.00
26043;BME280;13818;52.156;5.382;2023-02-28T08:24:20;102966.72;;;2.90;100.00
26043;BME280;13818;52.156;5.382;2023-02-28T08:26:47;102970.09;;;2.85;100.00
26043;BME280;13818;52.156;5.382;2023-02-28T08:29:13;102956.81;;;2.79;100.00
26043;BME280;13818;52.156;5.382;2023-02-28T08:31:41;102958.53;;;2.75;100.00
26043;BME280;13818;52.156;5.382;2023-02-28T08:34:08;102962.75;;;2.68;100.00
26043;BME280;13818;52.156;5.382;2023-02-28T08:36:36;102961.09;;;2.73;100.00
26043;BME280;13818;52.156;5.382;2023-02-28T08:39:04;102958.31;;;2.66;100.00
26043;BME280;13818;52.156;5.382;2023-02-28T08:41:32;102957.47;;;2.67;100.00
26043;BME280;13818;52.156;5.382;2023-02-28T08:43:59;102957.16;;;2.51;100.00
26043;BME280;13818;52.156;5.382;2023-02-28T08:46:26;102946.69;;;2.56;100.00
26043;BME280;13818;52.156;5.382;2023-02-28T08:48:54;102950.94;;;2.92;100.00
26043;BME280;13818;52.156;5.382;2023-02-28T08:51:21;102941.88;;;3.25;100.00
26043;BME280;13818;52.156;5.382;2023-02-28T08:53:52;102933.13;;;3.26;100.00
26043;BME280;13818;52.156;5.382;2023-02-28T08:56:19;102941.13;;;3.31;100.00
26043;BME280;13818;52.156;5.382;2023-02-28T08:58:48;102951.66;;;3.31;100.00
26043;BME280;13818;52.156;5.382;2023-02-28T09:01:17;102940.28;;;3.32;100.00
26043;BME280;13818;52.156;5.382;2023-02-28T09:03:46;102948.44;;;3.47;100.00
26043;BME280;13818;52.156;5.382;2023-02-28T09:06:14;102943.28;;;3.53;100.00
26043;BME280;13818;52.156;5.382;2023-02-28T09:08:41;102943.41;;;3.61;100.00
26043;BME280;13818;52.156;5.382;2023-02-28T09:11:08;102944.44;;;3.71;100.00
26043;BME280;13818;52.156;5.382;2023-02-28T09:13:35;102940.34;;;3.91;100.00
26043;BME280;13818;52.156;5.382;2023-02-28T09:16:05;102949.38;;;4.06;100.00
26043;BME280;13818;52.156;5.382;2023-02-28T09:18:33;102947.81;;;4.22;100.00
26043;BME280;13818;52.156;5.382;2023-02-28T09:21:02;102946.19;;;4.30;100.00
26043;BME280;13818;52.156;5.382;2023-02-28T09:23:29;102943.91;;;4.58;100.00
26043;BME280;13818;52.156;5.382;2023-02-28T09:25:55;102946.78;;;4.77;100.00
26043;BME280;13818;52.156;5.382;2023-02-28T09:28:22;102941.75;;;5.01;100.00
26043;BME280;13818;52.156;5.382;2023-02-28T09:30:50;102943.75;;;5.22;100.00
26043;BME280;13818;52.156;5.382;2023-02-28T09:33:19;102949.09;;;5.30;100.00
26043;BME280;13818;52.156;5.382;2023-02-28T09:35:47;102942.22;;;5.45;99.12
26043;BME280;13818;52.156;5.382;2023-02-28T09:38:13;102951.19;;;5.62;97.09
26043;BME280;13818;52.156;5.382;2023-02-28T09:40:49;102946.97;;;5.92;85.31
26043;BME280;13818;52.156;5.382;2023-02-28T09:43:18;102954.63;;;5.57;79.37
26043;BME280;13818;52.156;5.382;2023-02-28T09:45:50;102957.13;;;5.38;74.87
26043;BME280;13818;52.156;5.382;2023-02-28T09:48:22;102952.69;;;5.37;72.53
26043;BME280;13818;52.156;5.382;2023-02-28T09:50:51;102957.03;;;5.30;68.72
26043;BME280;13818;52.156;5.382;2023-02-28T09:53:22;102965.09;;;5.41;67.77
26043;BME280;13818;52.156;5.382;2023-02-28T09:55:55;102957.03;;;5.27;66.47
26043;BME280;13818;52.156;5.382;2023-02-28T09:58:32;102963.06;;;5.17;64.77
26043;BME280;13818;52.156;5.382;2023-02-28T10:01:03;102955.97;;;5.13;62.96
26043;BME280;13818;52.156;5.382;2023-02-28T10:03:38;102967.56;;;5.24;63.03
26043;BME280;13818;52.156;5.382;2023-02-28T10:06:10;102962.38;;;5.33;63.67
26043;BME280;13818;52.156;5.382;2023-02-28T10:08:42;102954.69;;;5.61;61.02
26043;BME280;13818;52.156;5.382;2023-02-28T10:11:12;102954.66;;;5.60;60.21
26043;BME280;13818;52.156;5.382;2023-02-28T10:13:50;102952.97;;;5.66;58.52
26043;BME280;13818;52.156;5.382;2023-02-28T10:16:22;102954.72;;;5.66;58.92
26043;BME280;13818;52.156;5.382;2023-02-28T10:18:56;102954.38;;;5.27;58.69
26043;BME280;13818;52.156;5.382;2023-02-28T10:21:26;102945.72;;;5.47;60.46
26043;BME280;13818;52.156;5.382;2023-02-28T10:24:02;102949.25;;;5.46;60.50
26043;BME280;13818;52.156;5.382;2023-02-28T10:26:31;102941.28;;;5.40;60.28
26043;BME280;13818;52.156;5.382;2023-02-28T10:28:58;102938.84;;;5.66;60.40
26043;BME280;13818;52.156;5.382;2023-02-28T10:31:25;102937.81;;;5.48;60.95
26043;BME280;13818;52.156;5.382;2023-02-28T10:33:53;102943.25;;;5.68;58.48
26043;BME280;13818;52.156;5.382;2023-02-28T10:36:21;102943.38;;;5.81;57.63
26043;BME280;13818;52.156;5.382;2023-02-28T10:38:48;102937.91;;;5.59;57.88
26043;BME280;13818;52.156;5.382;2023-02-28T10:41:17;102949.34;;;5.60;55.94
26043;BME280;13818;52.156;5.382;2023-02-28T10:46:49;102940.38;;;5.41;56.39
26043;BME280;13818;52.156;5.382;2023-02-28T10:49:20;102936.91;;;5.46;56.29
26043;BME280;13818;52.156;5.382;2023-02-28T10:51:51;102928.06;;;5.46;56.15
26043;BME280;13818;52.156;5.382;2023-02-28T10:54:19;102940.31;;;5.30;54.89
26043;BME280;13818;52.156;5.382;2023-02-28T10:57:07;102939.38;;;5.26;56.82
26043;BME280;13818;52.156;5.382;2023-02-28T10:59:35;102935.06;;;5.36;57.18
26043;BME280;13818;52.156;5.382;2023-02-28T11:02:02;102922.56;;;5.19;55.40
26043;BME280;13818;52.156;5.382;2023-02-28T11:04:36;102921.81;;;5.34;55.58
26043;BME280;13818;52.156;5.382;2023-02-28T11:07:09;102915.81;;;5.51;55.19
26043;BME280;13818;52.156;5.382;2023-02-28T11:09:45;102918.41;;;5.46;55.85
26043;BME280;13818;52.156;5.382;2023-02-28T11:12:21;102914.00;;;5.48;54.96
26043;BME280;13818;52.156;5.382;2023-02-28T11:14:49;102919.22;;;5.41;55.03
26043;BME280;13818;52.156;5.382;2023-02-28T11:17:20;102906.19;;;5.62;55.74
26043;BME280;13818;52.156;5.382;2023-02-28T11:19:51;102909.81;;;5.77;54.50
26043;BME280;13818;52.156;5.382;2023-02-28T11:22:20;102913.16;;;5.52;54.42
26043;BME280;13818;52.156;5.382;2023-02-28T11:24:50;102924.66;;;5.56;55.32
26043;BME280;13818;52.156;5.382;2023-02-28T11:27:39;102922.59;;;5.21;54.54
26043;BME280;13818;52.156;5.382;2023-02-28T11:30:24;102914.66;;;5.24;55.58
26043;BME280;13818;52.156;5.382;2023-02-28T11:32:50;102897.25;;;5.49;55.76
26043;BME280;13818;52.156;5.382;2023-02-28T11:35:23;102907.88;;;5.54;56.22
26043;BME280;13818;52.156;5.382;2023-02-28T11:37:52;102897.34;;;5.59;54.41
26043;BME280;13818;52.156;5.382;2023-02-28T11:40:24;102900.91;;;5.68;55.34
26043;BME280;13818;52.156;5.382;2023-02-28T11:43:12;102903.59;;;5.70;54.95
26043;BME280;13818;52.156;5.382;2023-02-28T11:45:57;102900.00;;;5.59;54.19
26043;BME280;13818;52.156;5.382;2023-02-28T11:48:29;102889.47;;;5.66;54.46
26043;BME280;13818;52.156;5.382;2023-02-28T11:51:08;102891.16;;;5.58;53.93
26043;BME280;13818;52.156;5.382;2023-02-28T11:53:59;102886.88;;;5.73;54.24
26043;BME280;13818;52.156;5.382;2023-02-28T11:56:32;102888.59;;;5.70;54.85
26043;BME280;13818;52.156;5.382;2023-02-28T11:59:11;102899.31;;;5.89;54.28
26043;BME280;13818;52.156;5.382;2023-02-28T12:02:03;102895.66;;;5.70;53.48
26043;BME280;13818;52.156;5.382;2023-02-28T12:04:40;102880.72;;;5.80;53.14
26043;BME280;13818;52.156;5.382;2023-02-28T12:07:17;102879.75;;;5.65;52.98
26043;BME280;13818;52.156;5.382;2023-02-28T12:09:57;102878.06;;;5.78;53.31
26043;BME280;13818;52.156;5.382;2023-02-28T12:12:38;102878.91;;;5.73;52.98
26043;BME280;13818;52.156;5.382;2023-02-28T12:15:32;102883.41;;;5.84;54.08
26043;BME280;13818;52.156;5.382;2023-02-28T12:18:15;102880.91;;;6.01;53.88
26043;BME280;13818;52.156;5.382;2023-02-28T12:20:52;102873.88;;;6.10;54.25
26043;BME280;13818;52.156;5.382;2023-02-28T12:23:46;102886.19;;;6.01;51.31
26043;BME280;13818;52.156;5.382;2023-02-28T12:26:18;102901.09;;;5.93;50.71
26043;BME280;13818;52.156;5.382;2023-02-28T12:28:51;102884.94;;;5.53;50.55
26043;BME280;13818;52.156;5.382;2023-02-28T12:31:21;102874.50;;;5.73;51.94
26043;BME280;13818;52.156;5.382;2023-02-28T12:33:51;102860.53;;;5.96;52.42
26043;BME280;13818;52.156;5.382;2023-02-28T12:36:20;102870.31;;;6.05;52.40
26043;BME280;13818;52.156;5.382;2023-02-28T12:38:54;102865.00;;;6.01;52.04
26043;BME280;13818;52.156;5.382;2023-02-28T12:41:27;102860.47;;;5.90;52.01
26043;BME280;13818;52.156;5.382;2023-02-28T12:44:02;102862.22;;;5.81;51.79
26043;BME280;13818;52.156;5.382;2023-02-28T12:46:32;102868.47;;;5.96;51.92
26043;BME280;13818;52.156;5.382;2023-02-28T12:49:05;102877.34;;;6.02;51.68
26043;BME280;13818;52.156;5.382;2023-02-28T12:51:34;102862.25;;;5.91;51.26
26043;BME280;13818;52.156;5.382;2023-02-28T12:54:07;102853.53;;;6.01;51.23
26043;BME280;13818;52.156;5.382;2023-02-28T12:56:44;102842.91;;;5.96;51.54
26043;BME280;13818;52.156;5.382;2023-02-28T12:59:22;102851.81;;;6.12;51.70
26043;BME280;13818;52.156;5.382;2023-02-28T13:02:09;102848.31;;;6.18;50.50
26043;BME280;13818;52.156;5.382;2023-02-28T13:04:58;102851.00;;;6.26;50.03
26043;BME280;13818;52.156;5.382;2023-02-28T13:08:04;102830.69;;;6.22;50.37
26043;BME280;13818;52.156;5.382;2023-02-28T13:10:43;102828.91;;;6.21;50.63
26043;BME280;13818;52.156;5.382;2023-02-28T13:13:15;102832.41;;;6.15;51.02
26043;BME280;13818;52.156;5.382;2023-02-28T13:15:57;102836.78;;;6.10;50.68